Scaly Mountain, North Carolina
Current Conditions -  °F | °C
As of 6:15 AM on Sunday 21 Dec 2014 (Local Time) from KTOC Reporting Station
Haze Haze  
Wind Chill: 43°   Ceiling: 400
Heat Index: 43°   Visibility: 3mi
Dew Point: 42°   Wind: 0mph
Humidity: 98%   Direction: NA
Pressure: 30.22"   Gusts: NA
Location:  35.04°N, 83.28°W
Report Text: KTOC 211115Z AUTO 00000KT 3SM BR OVC004 06/06 A3022 RMK AO2 T00600057
Loading
Personal Weather Stations






























Interactive Weather Map New forecast layout! Learn more

10-Day Weather Forecast

Advertisements
Track Severe Weather on mobile